sensor_id;sensor_type;location;lat;lon;timestamp;pressure;altitude;pressure_sealevel;temperature;humidity
66021;BME280;52789;59.980;30.346;2022-10-15T00:02:02;101584.22;;;8.99;95.37
66021;BME280;52789;59.980;30.346;2022-10-15T00:04:29;101581.94;;;8.94;96.29
66021;BME280;52789;59.980;30.346;2022-10-15T00:06:55;101588.69;;;8.98;96.19
66021;BME280;52789;59.980;30.346;2022-10-15T00:09:21;101583.63;;;8.95;96.95
66021;BME280;52789;59.980;30.346;2022-10-15T00:11:46;101585.34;;;8.96;96.85
66021;BME280;52789;59.980;30.346;2022-10-15T00:14:12;101588.44;;;9.02;97.19
66021;BME280;52789;59.980;30.346;2022-10-15T00:16:37;101585.91;;;9.00;97.84
66021;BME280;52789;59.980;30.346;2022-10-15T00:19:03;101590.38;;;8.99;97.71
66021;BME280;52789;59.980;30.346;2022-10-15T00:21:29;101581.50;;;8.89;98.07
66021;BME280;52789;59.980;30.346;2022-10-15T00:23:55;101577.44;;;8.85;98.11
66021;BME280;52789;59.980;30.346;2022-10-15T00:26:23;101586.09;;;8.87;98.78
66021;BME280;52789;59.980;30.346;2022-10-15T00:28:50;101586.53;;;8.92;99.01
66021;BME280;52789;59.980;30.346;2022-10-15T00:31:17;101572.91;;;8.76;98.97
66021;BME280;52789;59.980;30.346;2022-10-15T00:33:44;101590.41;;;8.79;98.89
66021;BME280;52789;59.980;30.346;2022-10-15T00:36:13;101589.81;;;8.75;100.00
66021;BME280;52789;59.980;30.346;2022-10-15T00:38:38;101587.56;;;8.71;100.00
66021;BME280;52789;59.980;30.346;2022-10-15T00:41:06;101587.44;;;8.72;100.00
66021;BME280;52789;59.980;30.346;2022-10-15T00:43:49;101585.75;;;8.71;100.00
66021;BME280;52789;59.980;30.346;2022-10-15T00:48:55;101590.84;;;8.63;100.00
66021;BME280;52789;59.980;30.346;2022-10-15T00:51:21;101582.94;;;8.52;100.00
66021;BME280;52789;59.980;30.346;2022-10-15T00:53:51;101583.94;;;8.51;100.00
66021;BME280;52789;59.980;30.346;2022-10-15T00:56:19;101588.41;;;8.50;100.00
66021;BME280;52789;59.980;30.346;2022-10-15T00:58:47;101582.50;;;8.47;100.00
66021;BME280;52789;59.980;30.346;2022-10-15T01:01:13;101582.50;;;8.47;100.00
66021;BME280;52789;59.980;30.346;2022-10-15T01:03:38;101582.63;;;8.45;100.00
66021;BME280;52789;59.980;30.346;2022-10-15T01:06:04;101578.88;;;8.48;100.00
66021;BME280;52789;59.980;30.346;2022-10-15T01:08:30;101583.22;;;8.49;100.00
66021;BME280;52789;59.980;30.346;2022-10-15T01:16:37;101534.53;;;8.27;100.00
66021;BME280;52789;59.980;30.346;2022-10-15T01:22:03;101575.00;;;8.52;100.00
66021;BME280;52789;59.980;30.346;2022-10-15T01:30:19;101583.59;;;8.65;100.00
66021;BME280;52789;59.980;30.346;2022-10-15T01:35:21;101581.28;;;8.72;100.00
66021;BME280;52789;59.980;30.346;2022-10-15T01:40:41;101574.28;;;8.71;100.00
66021;BME280;52789;59.980;30.346;2022-10-15T01:43:12;101575.56;;;8.76;100.00
66021;BME280;52789;59.980;30.346;2022-10-15T01:45:48;101576.47;;;8.65;100.00
66021;BME280;52789;59.980;30.346;2022-10-15T01:48:21;101579.50;;;8.61;100.00
66021;BME280;52789;59.980;30.346;2022-10-15T01:50:50;101579.78;;;8.58;100.00
66021;BME280;52789;59.980;30.346;2022-10-15T01:53:21;101575.44;;;8.57;100.00
66021;BME280;52789;59.980;30.346;2022-10-15T01:55:53;101579.63;;;8.59;100.00
66021;BME280;52789;59.980;30.346;2022-10-15T01:58:20;101576.41;;;8.56;100.00
66021;BME280;52789;59.980;30.346;2022-10-15T02:00:47;101578.34;;;8.54;100.00
66021;BME280;52789;59.980;30.346;2022-10-15T02:03:13;101584.19;;;8.48;100.00
66021;BME280;52789;59.980;30.346;2022-10-15T02:05:48;101576.94;;;8.50;100.00
66021;BME280;52789;59.980;30.346;2022-10-15T02:11:08;101575.84;;;8.52;100.00
66021;BME280;52789;59.980;30.346;2022-10-15T02:13:57;101581.72;;;8.56;100.00
66021;BME280;52789;59.980;30.346;2022-10-15T02:16:46;101567.09;;;8.41;100.00
66021;BME280;52789;59.980;30.346;2022-10-15T02:19:23;101580.38;;;8.41;100.00
66021;BME280;52789;59.980;30.346;2022-10-15T02:22:05;101582.91;;;8.42;100.00
66021;BME280;52789;59.980;30.346;2022-10-15T02:24:37;101576.88;;;8.40;100.00
66021;BME280;52789;59.980;30.346;2022-10-15T02:27:05;101569.03;;;8.38;100.00
66021;BME280;52789;59.980;30.346;2022-10-15T02:29:34;101578.91;;;8.36;100.00
66021;BME280;52789;59.980;30.346;2022-10-15T02:32:02;101581.69;;;8.35;100.00
66021;BME280;52789;59.980;30.346;2022-10-15T02:34:31;101571.00;;;8.25;100.00
66021;BME280;52789;59.980;30.346;2022-10-15T02:37:00;101571.56;;;8.29;100.00
66021;BME280;52789;59.980;30.346;2022-10-15T02:39:26;101568.34;;;8.25;100.00
66021;BME280;52789;59.980;30.346;2022-10-15T02:41:53;101568.66;;;8.32;100.00
66021;BME280;52789;59.980;30.346;2022-10-15T02:44:19;101574.81;;;8.44;100.00
66021;BME280;52789;59.980;30.346;2022-10-15T02:46:46;101571.75;;;8.48;100.00
66021;BME280;52789;59.980;30.346;2022-10-15T02:49:15;101573.50;;;8.59;100.00
66021;BME280;52789;59.980;30.346;2022-10-15T02:51:41;101564.38;;;8.52;100.00
66021;BME280;52789;59.980;30.346;2022-10-15T02:54:06;101569.22;;;8.47;100.00
66021;BME280;52789;59.980;30.346;2022-10-15T02:56:33;101572.59;;;8.49;100.00
66021;BME280;52789;59.980;30.346;2022-10-15T02:58:58;101567.03;;;8.52;100.00
66021;BME280;52789;59.980;30.346;2022-10-15T03:01:24;101576.41;;;8.56;100.00
66021;BME280;52789;59.980;30.346;2022-10-15T03:03:50;101561.06;;;8.59;100.00
66021;BME280;52789;59.980;30.346;2022-10-15T03:06:15;101569.59;;;8.63;100.00
66021;BME280;52789;59.980;30.346;2022-10-15T03:08:41;101570.31;;;8.65;100.00
66021;BME280;52789;59.980;30.346;2022-10-15T03:11:07;101575.88;;;8.62;100.00
66021;BME280;52789;59.980;30.346;2022-10-15T03:13:37;101574.16;;;8.51;100.00
66021;BME280;52789;59.980;30.346;2022-10-15T03:16:05;101571.31;;;8.43;100.00
66021;BME280;52789;59.980;30.346;2022-10-15T03:18:31;101570.47;;;8.31;100.00
66021;BME280;52789;59.980;30.346;2022-10-15T03:20:57;101572.41;;;8.29;100.00
66021;BME280;52789;59.980;30.346;2022-10-15T03:23:22;101577.00;;;8.27;100.00
66021;BME280;52789;59.980;30.346;2022-10-15T03:25:48;101575.78;;;8.31;100.00
66021;BME280;52789;59.980;30.346;2022-10-15T03:28:14;101578.06;;;8.36;100.00
66021;BME280;52789;59.980;30.346;2022-10-15T03:30:41;101565.66;;;8.36;100.00
66021;BME280;52789;59.980;30.346;2022-10-15T03:33:07;101565.03;;;8.44;100.00
66021;BME280;52789;59.980;30.346;2022-10-15T03:35:32;101572.59;;;8.49;100.00
66021;BME280;52789;59.980;30.346;2022-10-15T03:37:58;101572.16;;;8.44;100.00
66021;BME280;52789;59.980;30.346;2022-10-15T03:40:23;101563.47;;;8.42;100.00
66021;BME280;52789;59.980;30.346;2022-10-15T03:42:52;101551.19;;;8.29;100.00
66021;BME280;52789;59.980;30.346;2022-10-15T03:45:23;101572.41;;;8.41;100.00
66021;BME280;52789;59.980;30.346;2022-10-15T03:47:50;101570.25;;;8.34;100.00
66021;BME280;52789;59.980;30.346;2022-10-15T03:50:16;101560.59;;;8.33;100.00
66021;BME280;52789;59.980;30.346;2022-10-15T03:52:42;101563.59;;;8.29;100.00
66021;BME280;52789;59.980;30.346;2022-10-15T03:55:08;101564.72;;;8.26;100.00
66021;BME280;52789;59.980;30.346;2022-10-15T03:57:34;101563.47;;;8.30;100.00
66021;BME280;52789;59.980;30.346;2022-10-15T04:00:00;101567.81;;;8.31;100.00
66021;BME280;52789;59.980;30.346;2022-10-15T04:02:25;101565.16;;;8.31;100.00
66021;BME280;52789;59.980;30.346;2022-10-15T04:04:52;101556.16;;;8.23;100.00
66021;BME280;52789;59.980;30.346;2022-10-15T04:07:21;101557.13;;;8.22;100.00
66021;BME280;52789;59.980;30.346;2022-10-15T04:09:47;101563.16;;;8.24;100.00
66021;BME280;52789;59.980;30.346;2022-10-15T04:12:13;101563.16;;;8.24;100.00
66021;BME280;52789;59.980;30.346;2022-10-15T04:14:39;101568.13;;;8.17;100.00
66021;BME280;52789;59.980;30.346;2022-10-15T04:17:05;101564.72;;;8.26;100.00
66021;BME280;52789;59.980;30.346;2022-10-15T04:19:31;101578.69;;;8.28;100.00
66021;BME280;52789;59.980;30.346;2022-10-15T04:21:56;101571.13;;;8.24;100.00
66021;BME280;52789;59.980;30.346;2022-10-15T04:24:22;101569.81;;;8.18;100.00
66021;BME280;52789;59.980;30.346;2022-10-15T04:26:48;101572.47;;;8.18;100.00
66021;BME280;52789;59.980;30.346;2022-10-15T04:29:14;101560.03;;;8.19;100.00
66021;BME280;52789;59.980;30.346;2022-10-15T04:31:40;101566.19;;;8.19;100.00
66021;BME280;52789;59.980;30.346;2022-10-15T04:34:06;101556.56;;;8.18;100.00
66021;BME280;52789;59.980;30.346;2022-10-15T04:36:32;101560.38;;;8.25;100.00
66021;BME280;52789;59.980;30.346;2022-10-15T04:38:58;101561.78;;;8.29;100.00
66021;BME280;52789;59.980;30.346;2022-10-15T04:41:24;101546.41;;;8.23;100.00
66021;BME280;52789;59.980;30.346;2022-10-15T04:43:49;101562.16;;;8.36;100.00
66021;BME280;52789;59.980;30.346;2022-10-15T04:46:15;101532.53;;;8.20;100.00
66021;BME280;52789;59.980;30.346;2022-10-15T04:48:40;101557.47;;;8.28;100.00
66021;BME280;52789;59.980;30.346;2022-10-15T04:51:15;101560.81;;;8.30;100.00
66021;BME280;52789;59.980;30.346;2022-10-15T04:53:42;101560.69;;;8.32;100.00
66021;BME280;52789;59.980;30.346;2022-10-15T04:56:11;101567.09;;;8.41;100.00
66021;BME280;52789;59.980;30.346;2022-10-15T04:58:44;101558.75;;;8.45;100.00
66021;BME280;52789;59.980;30.346;2022-10-15T05:01:12;101558.16;;;8.42;100.00
66021;BME280;52789;59.980;30.346;2022-10-15T05:03:40;101562.03;;;8.37;100.00
66021;BME280;52789;59.980;30.346;2022-10-15T05:06:18;101533.38;;;8.20;100.00
66021;BME280;52789;59.980;30.346;2022-10-15T05:08:44;101562.38;;;8.33;100.00
66021;BME280;52789;59.980;30.346;2022-10-15T05:11:14;101558.31;;;8.29;100.00
66021;BME280;52789;59.980;30.346;2022-10-15T05:13:40;101566.41;;;8.27;100.00
66021;BME280;52789;59.980;30.346;2022-10-15T05:16:20;101557.47;;;8.28;100.00
66021;BME280;52789;59.980;30.346;2022-10-15T05:18:47;101561.22;;;8.26;100.00
66021;BME280;52789;59.980;30.346;2022-10-15T05:21:15;101564.44;;;8.29;100.00
66021;BME280;52789;59.980;30.346;2022-10-15T05:23:41;101567.59;;;8.34;100.00
66021;BME280;52789;59.980;30.346;2022-10-15T05:26:11;101566.84;;;8.32;100.00
66021;BME280;52789;59.980;30.346;2022-10-15T05:28:37;101567.59;;;8.34;100.00
66021;BME280;52789;59.980;30.346;2022-10-15T05:31:05;101569.03;;;8.38;100.00
66021;BME280;52789;59.980;30.346;2022-10-15T05:33:30;101567.31;;;8.37;100.00
66021;BME280;52789;59.980;30.346;2022-10-15T05:35:56;101576.03;;;8.40;100.00
66021;BME280;52789;59.980;30.346;2022-10-15T05:38:21;101579.53;;;8.40;100.00
66021;BME280;52789;59.980;30.346;2022-10-15T05:40:48;101568.31;;;8.36;100.00
66021;BME280;52789;59.980;30.346;2022-10-15T05:43:14;101574.81;;;8.44;100.00
66021;BME280;52789;59.980;30.346;2022-10-15T05:45:40;101576.94;;;8.50;100.00
66021;BME280;52789;59.980;30.346;2022-10-15T05:48:07;101573.56;;;8.48;100.00
66021;BME280;52789;59.980;30.346;2022-10-15T05:50:32;101577.91;;;8.49;100.00
66021;BME280;52789;59.980;30.346;2022-10-15T05:52:58;101569.94;;;8.49;100.00
66021;BME280;52789;59.980;30.346;2022-10-15T05:55:23;101566.44;;;8.48;100.00
66021;BME280;52789;59.980;30.346;2022-10-15T05:57:49;101579.84;;;8.67;99.86
66021;BME280;52789;59.980;30.346;2022-10-15T06:00:14;101560.41;;;8.67;99.47
66021;BME280;52789;59.980;30.346;2022-10-15T06:02:40;101573.19;;;8.73;98.63
66021;BME280;52789;59.980;30.346;2022-10-15T06:05:06;101575.69;;;8.75;98.20
66021;BME280;52789;59.980;30.346;2022-10-15T06:07:32;101573.19;;;8.73;98.18
66021;BME280;52789;59.980;30.346;2022-10-15T06:09:57;101578.88;;;8.68;98.40
66021;BME280;52789;59.980;30.346;2022-10-15T06:12:23;101561.72;;;8.52;98.12
66021;BME280;52789;59.980;30.346;2022-10-15T06:14:51;101578.09;;;8.57;98.37
66021;BME280;52789;59.980;30.346;2022-10-15T06:17:16;101577.31;;;8.66;99.23
66021;BME280;52789;59.980;30.346;2022-10-15T06:19:42;101589.38;;;8.70;98.82
66021;BME280;52789;59.980;30.346;2022-10-15T06:22:08;101577.50;;;8.74;99.04
66021;BME280;52789;59.980;30.346;2022-10-15T06:24:33;101591.25;;;8.79;98.28
66021;BME280;52789;59.980;30.346;2022-10-15T06:26:59;101583.44;;;8.87;97.87
66021;BME280;52789;59.980;30.346;2022-10-15T06:29:24;101573.97;;;8.94;97.73
66021;BME280;52789;59.980;30.346;2022-10-15T06:31:50;101587.84;;;8.98;97.91
66021;BME280;52789;59.980;30.346;2022-10-15T06:34:15;101572.75;;;8.98;98.19
66021;BME280;52789;59.980;30.346;2022-10-15T06:36:41;101583.72;;;9.15;97.80
66021;BME280;52789;59.980;30.346;2022-10-15T06:39:06;101590.03;;;9.23;96.83
66021;BME280;52789;59.980;30.346;2022-10-15T06:41:32;101573.38;;;9.12;96.71
66021;BME280;52789;59.980;30.346;2022-10-15T06:43:58;101590.31;;;9.20;96.84
66021;BME280;52789;59.980;30.346;2022-10-15T06:46:24;101580.06;;;9.06;96.58
66021;BME280;52789;59.980;30.346;2022-10-15T06:49:17;101567.94;;;8.92;96.73
66021;BME280;52789;59.980;30.346;2022-10-15T06:51:42;101593.75;;;9.02;97.02
66021;BME280;52789;59.980;30.346;2022-10-15T06:54:08;101595.09;;;8.96;97.13
66021;BME280;52789;59.980;30.346;2022-10-15T06:56:34;101591.16;;;8.90;97.31
66021;BME280;52789;59.980;30.346;2022-10-15T06:59:00;101593.38;;;8.85;97.73
66021;BME280;52789;59.980;30.346;2022-10-15T07:01:26;101606.19;;;8.80;96.61
66021;BME280;52789;59.980;30.346;2022-10-15T07:03:51;101603.28;;;8.83;96.93
66021;BME280;52789;59.980;30.346;2022-10-15T07:06:17;101588.31;;;8.82;97.96
66021;BME280;52789;59.980;30.346;2022-10-15T07:08:43;101601.38;;;8.95;97.36
66021;BME280;52789;59.980;30.346;2022-10-15T07:11:10;101600.22;;;9.09;97.55
66021;BME280;52789;59.980;30.346;2022-10-15T07:13:38;101603.41;;;9.33;96.72
66021;BME280;52789;59.980;30.346;2022-10-15T07:16:05;101594.88;;;9.39;95.41
66021;BME280;52789;59.980;30.346;2022-10-15T07:18:33;101604.19;;;9.54;94.25
66021;BME280;52789;59.980;30.346;2022-10-15T07:20:59;101606.72;;;9.75;93.62
66021;BME280;52789;59.980;30.346;2022-10-15T07:23:24;101600.91;;;9.91;93.05
66021;BME280;52789;59.980;30.346;2022-10-15T07:25:50;101598.94;;;9.93;91.13
66021;BME280;52789;59.980;30.346;2022-10-15T07:28:15;101604.53;;;9.90;91.59
66021;BME280;52789;59.980;30.346;2022-10-15T07:30:41;101613.09;;;10.03;91.97
66021;BME280;52789;59.980;30.346;2022-10-15T07:33:06;101609.88;;;10.09;91.00
66021;BME280;52789;59.980;30.346;2022-10-15T07:35:32;101615.88;;;10.11;90.48
66021;BME280;52789;59.980;30.346;2022-10-15T07:38:01;101619.53;;;10.10;89.76
66021;BME280;52789;59.980;30.346;2022-10-15T07:40:27;101629.66;;;10.16;90.32
66021;BME280;52789;59.980;30.346;2022-10-15T07:42:53;101621.84;;;10.24;90.03
66021;BME280;52789;59.980;30.346;2022-10-15T07:45:21;101628.56;;;10.29;89.74
66021;BME280;52789;59.980;30.346;2022-10-15T07:47:51;101602.16;;;10.06;89.55
66021;BME280;52789;59.980;30.346;2022-10-15T07:50:17;101623.16;;;10.09;89.46
66021;BME280;52789;59.980;30.346;2022-10-15T07:52:43;101619.81;;;10.07;90.18
66021;BME280;52789;59.980;30.346;2022-10-15T07:55:08;101630.44;;;10.07;90.52
66021;BME280;52789;59.980;30.346;2022-10-15T07:57:34;101596.50;;;9.71;90.77
66021;BME280;52789;59.980;30.346;2022-10-15T07:59:59;101618.91;;;9.78;92.21
66021;BME280;52789;59.980;30.346;2022-10-15T08:02:25;101618.91;;;9.78;92.41
66021;BME280;52789;59.980;30.346;2022-10-15T08:04:54;101629.28;;;9.81;92.64
66021;BME280;52789;59.980;30.346;2022-10-15T08:07:20;101640.13;;;9.99;92.30
66021;BME280;52789;59.980;30.346;2022-10-15T08:09:45;101626.81;;;9.89;91.40
66021;BME280;52789;59.980;30.346;2022-10-15T08:12:11;101636.88;;;9.95;91.66
66021;BME280;52789;59.980;30.346;2022-10-15T08:14:37;101602.44;;;9.84;91.82
66021;BME280;52789;59.980;30.346;2022-10-15T08:17:04;101602.72;;;10.00;91.37
66021;BME280;52789;59.980;30.346;2022-10-15T08:19:30;101640.88;;;10.30;90.57
66021;BME280;52789;59.980;30.346;2022-10-15T08:21:56;101644.53;;;10.48;90.43
66021;BME280;52789;59.980;30.346;2022-10-15T08:24:23;101641.47;;;10.52;90.50
66021;BME280;52789;59.980;30.346;2022-10-15T08:26:48;101626.03;;;10.46;90.15
66021;BME280;52789;59.980;30.346;2022-10-15T08:29:14;101629.00;;;10.43;90.13
66021;BME280;52789;59.980;30.346;2022-10-15T08:31:40;101611.03;;;10.26;90.41
66021;BME280;52789;59.980;30.346;2022-10-15T08:34:06;101629.69;;;10.55;90.18
66021;BME280;52789;59.980;30.346;2022-10-15T08:36:32;101630.22;;;10.68;89.83
66021;BME280;52789;59.980;30.346;2022-10-15T08:39:00;101642.38;;;10.90;89.65
66021;BME280;52789;59.980;30.346;2022-10-15T08:41:32;101617.88;;;10.77;88.46
66021;BME280;52789;59.980;30.346;2022-10-15T08:44:00;101628.53;;;10.77;88.41
66021;BME280;52789;59.980;30.346;2022-10-15T08:46:41;101628.97;;;10.72;89.38
66021;BME280;52789;59.980;30.346;2022-10-15T08:49:21;101628.28;;;10.70;89.17
66021;BME280;52789;59.980;30.346;2022-10-15T08:51:53;101624.31;;;10.65;89.61
66021;BME280;52789;59.980;30.346;2022-10-15T08:54:21;101622.09;;;10.60;89.97
66021;BME280;52789;59.980;30.346;2022-10-15T08:56:50;101624.06;;;10.58;90.19
66021;BME280;52789;59.980;30.346;2022-10-15T09:01:58;101595.56;;;10.68;90.49
66021;BME280;52789;59.980;30.346;2022-10-15T09:04:47;101632.56;;;11.00;89.59
66021;BME280;52789;59.980;30.346;2022-10-15T09:07:40;101628.59;;;11.14;89.05
66021;BME280;52789;59.980;30.346;2022-10-15T09:10:30;101625.91;;;11.14;88.17
66021;BME280;52789;59.980;30.346;2022-10-15T09:13:37;101602.72;;;10.77;88.29
66021;BME280;52789;59.980;30.346;2022-10-15T09:16:39;101581.59;;;10.37;89.54
66021;BME280;52789;59.980;30.346;2022-10-15T09:23:25;101603.03;;;10.16;91.51
66021;BME280;52789;59.980;30.346;2022-10-15T09:26:21;101609.16;;;10.07;91.09
66021;BME280;52789;59.980;30.346;2022-10-15T09:31:34;101633.31;;;10.35;90.83
66021;BME280;52789;59.980;30.346;2022-10-15T09:34:05;101634.19;;;10.45;90.21
66021;BME280;52789;59.980;30.346;2022-10-15T09:36:46;101635.97;;;10.54;90.28
66021;BME280;52789;59.980;30.346;2022-10-15T09:42:00;101635.28;;;10.52;89.36
66021;BME280;52789;59.980;30.346;2022-10-15T09:44:38;101616.22;;;10.28;90.35
66021;BME280;52789;59.980;30.346;2022-10-15T09:49:50;101628.28;;;10.22;91.08
66021;BME280;52789;59.980;30.346;2022-10-15T09:57:54;101620.97;;;10.14;92.61
66021;BME280;52789;59.980;30.346;2022-10-15T10:01:04;101617.03;;;10.18;93.23
66021;BME280;52789;59.980;30.346;2022-10-15T10:03:32;101620.69;;;10.17;92.91
66021;BME280;52789;59.980;30.346;2022-10-15T10:06:02;101613.97;;;10.13;92.87
66021;BME280;52789;59.980;30.346;2022-10-15T10:08:34;101617.03;;;10.18;93.33
66021;BME280;52789;59.980;30.346;2022-10-15T10:11:05;101572.75;;;9.98;92.71
66021;BME280;52789;59.980;30.346;2022-10-15T10:13:38;101614.81;;;10.23;92.96
66021;BME280;52789;59.980;30.346;2022-10-15T10:26:34;101579.91;;;10.36;91.52
66021;BME280;52789;59.980;30.346;2022-10-15T10:29:00;101570.97;;;10.47;91.68
66021;BME280;52789;59.980;30.346;2022-10-15T10:31:31;101594.34;;;10.72;90.84
66021;BME280;52789;59.980;30.346;2022-10-15T10:34:01;101611.38;;;10.99;90.76
66021;BME280;52789;59.980;30.346;2022-10-15T10:37:03;101595.91;;;11.12;90.34
66021;BME280;52789;59.980;30.346;2022-10-15T10:39:42;101577.38;;;11.10;88.59
66021;BME280;52789;59.980;30.346;2022-10-15T10:45:52;101594.63;;;11.43;88.30
66021;BME280;52789;59.980;30.346;2022-10-15T10:48:37;101603.03;;;11.48;87.37
66021;BME280;52789;59.980;30.346;2022-10-15T10:51:19;101607.63;;;11.56;87.50
66021;BME280;52789;59.980;30.346;2022-10-15T10:54:04;101594.25;;;11.66;87.42
66021;BME280;52789;59.980;30.346;2022-10-15T10:56:39;101596.69;;;11.77;87.33
66021;BME280;52789;59.980;30.346;2022-10-15T10:59:29;101600.59;;;11.92;85.50
66021;BME280;52789;59.980;30.346;2022-10-15T11:01:58;101584.56;;;11.92;83.93
66021;BME280;52789;59.980;30.346;2022-10-15T11:04:24;101600.16;;;12.15;83.89
66021;BME280;52789;59.980;30.346;2022-10-15T11:32:04;101599.31;;;12.76;80.52
66021;BME280;52789;59.980;30.346;2022-10-15T12:02:19;101604.91;;;12.64;81.86
66021;BME280;52789;59.980;30.346;2022-10-15T12:05:04;101563.34;;;12.70;81.21
66021;BME280;52789;59.980;30.346;2022-10-15T12:07:50;101583.72;;;12.97;79.41
66021;BME280;52789;59.980;30.346;2022-10-15T12:13:21;101600.38;;;13.43;79.27
66021;BME280;52789;59.980;30.346;2022-10-15T12:27:23;101606.75;;;13.16;79.71
66021;BME280;52789;59.980;30.346;2022-10-15T12:30:18;101603.28;;;12.97;79.84
66021;BME280;52789;59.980;30.346;2022-10-15T12:32:51;101607.78;;;12.97;80.41
66021;BME280;52789;59.980;30.346;2022-10-15T12:37:46;101608.75;;;12.88;80.35
66021;BME280;52789;59.980;30.346;2022-10-15T12:43:01;101603.34;;;12.80;80.77
66021;BME280;52789;59.980;30.346;2022-10-15T12:45:53;101600.69;;;12.80;79.92
66021;BME280;52789;59.980;30.346;2022-10-15T12:48:36;101608.91;;;12.86;79.47
66021;BME280;52789;59.980;30.346;2022-10-15T12:53:55;101606.44;;;12.93;78.81
66021;BME280;52789;59.980;30.346;2022-10-15T12:56:40;101609.78;;;12.95;79.07
66021;BME280;52789;59.980;30.346;2022-10-15T12:59:29;101614.28;;;12.94;79.14
66021;BME280;52789;59.980;30.346;2022-10-15T13:01:56;101611.69;;;12.77;79.80
66021;BME280;52789;59.980;30.346;2022-10-15T13:04:22;101612.91;;;12.64;80.21
66021;BME280;52789;59.980;30.346;2022-10-15T13:07:13;101618.03;;;12.58;80.69
66021;BME280;52789;59.980;30.346;2022-10-15T13:09:40;101620.50;;;12.51;80.63
66021;BME280;52789;59.980;30.346;2022-10-15T13:12:22;101626.84;;;12.50;81.15
66021;BME280;52789;59.980;30.346;2022-10-15T13:14:55;101620.13;;;12.46;81.54
66021;BME280;52789;59.980;30.346;2022-10-15T13:17:43;101620.72;;;12.40;80.94
66021;BME280;52789;59.980;30.346;2022-10-15T13:20:30;101624.78;;;12.26;81.29
66021;BME280;52789;59.980;30.346;2022-10-15T13:25:50;101611.34;;;12.00;81.96
66021;BME280;52789;59.980;30.346;2022-10-15T13:28:38;101625.00;;;11.97;81.73
66021;BME280;52789;59.980;30.346;2022-10-15T13:31:38;101621.41;;;11.89;82.38
66021;BME280;52789;59.980;30.346;2022-10-15T13:34:28;101619.47;;;11.81;82.70
66021;BME280;52789;59.980;30.346;2022-10-15T13:37:22;101623.50;;;11.85;82.87
66021;BME280;52789;59.980;30.346;2022-10-15T13:39:50;101611.44;;;11.81;83.30
66021;BME280;52789;59.980;30.346;2022-10-15T13:42:22;101614.13;;;11.81;82.64
66021;BME280;52789;59.980;30.346;2022-10-15T13:45:25;101605.69;;;11.76;82.15
66021;BME280;52789;59.980;30.346;2022-10-15T13:47:53;101610.50;;;11.72;82.44
66021;BME280;52789;59.980;30.346;2022-10-15T13:50:29;101583.91;;;11.53;82.46
66021;BME280;52789;59.980;30.346;2022-10-15T13:53:26;101597.38;;;11.61;82.42
66021;BME280;52789;59.980;30.346;2022-10-15T13:55:55;101605.53;;;11.60;82.98
66021;BME280;52789;59.980;30.346;2022-10-15T13:58:32;101600.88;;;11.62;83.47
66021;BME280;52789;59.980;30.346;2022-10-15T14:03:45;101602.28;;;11.56;83.79
66021;BME280;52789;59.980;30.346;2022-10-15T14:08:44;101600.06;;;11.52;84.47
66021;BME280;52789;59.980;30.346;2022-10-15T14:11:12;101596.41;;;11.53;84.31
66021;BME280;52789;59.980;30.346;2022-10-15T14:14:26;101593.44;;;11.56;84.51
66021;BME280;52789;59.980;30.346;2022-10-15T14:17:04;101581.69;;;11.48;84.61
66021;BME280;52789;59.980;30.346;2022-10-15T14:19:34;101585.06;;;11.51;84.52
66021;BME280;52789;59.980;30.346;2022-10-15T14:22:04;101586.34;;;11.46;84.88
66021;BME280;52789;59.980;30.346;2022-10-15T14:24:37;101585.66;;;11.44;84.96
66021;BME280;52789;59.980;30.346;2022-10-15T14:27:13;101586.78;;;11.42;84.97
66021;BME280;52789;59.980;30.346;2022-10-15T14:36:59;101595.03;;;11.48;86.11
66021;BME280;52789;59.980;30.346;2022-10-15T14:39:34;101577.56;;;11.36;86.27
66021;BME280;52789;59.980;30.346;2022-10-15T14:42:34;101583.13;;;11.43;86.81
66021;BME280;52789;59.980;30.346;2022-10-15T14:45:26;101592.97;;;11.42;86.52
66021;BME280;52789;59.980;30.346;2022-10-15T14:51:32;101555.50;;;11.07;86.85
66021;BME280;52789;59.980;30.346;2022-10-15T14:54:17;101588.13;;;11.28;86.69
66021;BME280;52789;59.980;30.346;2022-10-15T14:56:49;101548.34;;;11.07;87.28
66021;BME280;52789;59.980;30.346;2022-10-15T14:59:18;101585.72;;;11.25;86.98
66021;BME280;52789;59.980;30.346;2022-10-15T15:01:54;101592.47;;;11.29;86.99
66021;BME280;52789;59.980;30.346;2022-10-15T15:04:38;101570.63;;;11.16;87.21
66021;BME280;52789;59.980;30.346;2022-10-15T15:07:18;101588.00;;;11.20;87.15
66021;BME280;52789;59.980;30.346;2022-10-15T15:09:51;101586.03;;;11.22;87.07
66021;BME280;52789;59.980;30.346;2022-10-15T15:12:22;101590.66;;;11.20;87.00
66021;BME280;52789;59.980;30.346;2022-10-15T15:14:48;101571.22;;;11.10;87.27
66021;BME280;52789;59.980;30.346;2022-10-15T15:17:17;101575.13;;;11.15;87.43
66021;BME280;52789;59.980;30.346;2022-10-15T15:19:43;101582.97;;;11.17;86.89
66021;BME280;52789;59.980;30.346;2022-10-15T15:22:11;101583.25;;;11.14;86.90
66021;BME280;52789;59.980;30.346;2022-10-15T15:24:38;101608.63;;;11.18;87.00
66021;BME280;52789;59.980;30.346;2022-10-15T15:27:04;101602.31;;;11.19;87.16
66021;BME280;52789;59.980;30.346;2022-10-15T15:29:30;101604.84;;;11.21;87.21
66021;BME280;52789;59.980;30.346;2022-10-15T15:31:55;101600.94;;;11.15;87.38
66021;BME280;52789;59.980;30.346;2022-10-15T15:34:23;101600.63;;;11.18;87.30
66021;BME280;52789;59.980;30.346;2022-10-15T15:36:49;101588.34;;;11.07;87.88